Back to top

Greybull, WY weather

South Big Horn County Airport, Greybull, WY: 8/18/2022 04:53
Visibility10 statute milesclear sky
View 7-Day Forecast
Area Summary
Sky/CloudsSky Clear
Weather [last 24 hours]None
Pressure30.18 in.Hg (1022 hPa)
Dew Point46 °F (7.8 °C)
Relative Humidity59.8 %
Temperature60.1 °F (15.6 °C)red thermometer
Reading TimeMinimum to Maximum Temperature
6-hr ending 8/17@23:5372 °F to 93.9 °F (22.2 °C to 34.4 °C)
6-hr ending 8/17@17:5388 °F to 97 °F (31.1 °C to 36.1 °C)
6-hr ending 8/17@11:5360.1 °F to 88 °F (15.6 °C to 31.1 °C)
6-hr ending 8/17@05:5366.9 °F to 77 °F (19.4 °C to 25 °C)
24-hr ending 8/18@00:5360.1 °F to 97 °F (15.6 °C to 36.1 °C)
Wind6.9 MPH (6 KT) green arrow pointing 112.5 degrees
Wind FromEast/Southeast (120 Degrees)
Rolling 24-hr Peak Wind32.2 MPH (28 KT) on 8/17@17:40
Rolling 24-hr Peak Wind FromNorth/Northwest (340 Degrees)
Twilight Begins05:47Sunshine Yesterday
Sunrise06:19N/A
Sunset20:12
Twilight Ends20:44
METARKGEY 181053Z AUTO 12006KT 10SM CLR 16/08 A3018 RMK AO2 SLP178 T01560078
Tags: